EGPDEGPM

Guest
Details From EGPD - Aberdeen Dyce
To EGPM - Scatsta
Flight Number -
Tags generated
Created
Modified
Stats Distance 196 nm / 364 km
Max Altitude 19,900 ft / 6,066 m
Waypoints 3
Social Downloads 1
Likes 0
Share VATSIM

Download

Looking for another format? Having issues loading an existing format? Contact us
Advertisement - Login to hide

Notes

Basic altitude profile: - Ascent Rate: 2500ft/min - Ascent Speed: 250kts - Cruise Altitude: 35000ft - Cruise Speed: 280kts - Descent Rate: 1500ft/min - Descent Speed: 250kts Options: - Use NATs: yes - Use PACOTS: yes - Use low airways: yes - Use high airways: no

Route

EGPD BEKET EGPM

ID Type Via Altitude Latitude Longitude Leg Dist Tot Dist Heading (true) Name
O EGPD APT - 0 ft / 0 m 57.20362˚ -2.19902˚ - 0 nm - Aberdeen Dyce
BEKET FIX - 19,900 ft / 6,066 m 58.88694˚ -1.52222˚ 103 nm 103 nm 12° / 12° -
O EGPM APT - 0 ft / 0 m 60.43265˚ -1.29611˚ 93 nm 196 nm 4° / 4° Scatsta

Altitude Profile

Advertisement - Login to hide

Weather


0- 5 10 15 20 25 30 35+ Temperature / ° C

Clouds and Precipitation
Forecast for 2017-12-17 12:00 UTC. Updated an hour ago

Ground ~20,000 ft ~40,000 ft Winds

EGPD

Details ICAO EGPD (ABZ)
Name Aberdeen Dyce
Region United Kingdom
Timezone Europe/London (UTC+0.0)
Stats Elevation 215 ft / 66 m (AMSL)
Location 57.203623° -2.199018°
Runways 4
Magnetic Variation 2.022° W

METAR

EGPD 171150Z AUTO 22016KT 9999 NCD 06/04 Q1006 NOSIG

Decode

TAF

TAF EGPD 171056Z 1712/1812 21012KT 9999 FEW015 SCT030 BECMG 1712/1715 29014KT TEMPO 1713/1718 30017G27KT BECMG 1801/1804 22007KT

Decode

Departure Runways

ID Width Length Bearing (true) Bearing (mag) Surface Threshold Offset Overrun Length
05 151 ft / 46 m 1,555 ft / 474 m 46.38° 48.40° Concrete 0 ft / 0 m 0 ft / 0 m
14 118 ft / 36 m 1,901 ft / 579 m 139.16° 141.18° Asphalt 0 ft / 0 m 0 ft / 0 m
16 151 ft / 46 m 6,006 ft / 1,831 m 158.21° 160.23° Asphalt 0 ft / 0 m 0 ft / 0 m
18 75 ft / 23 m 896 ft / 273 m 179.48° 181.50° Asphalt 0 ft / 0 m 0 ft / 0 m
23 151 ft / 46 m 1,555 ft / 474 m 226.38° 228.40° Concrete 0 ft / 0 m 0 ft / 0 m
32 118 ft / 36 m 1,901 ft / 579 m 319.16° 321.18° Asphalt 0 ft / 0 m 0 ft / 0 m
34 151 ft / 46 m 6,006 ft / 1,831 m 338.22° 340.24° Asphalt 0 ft / 0 m 0 ft / 0 m
36 75 ft / 23 m 896 ft / 273 m 359.48° 1.50° Asphalt 0 ft / 0 m 0 ft / 0 m

EGPM

Details ICAO EGPM (SDZ)
Name Scatsta
Region United Kingdom
Timezone Europe/London (UTC+0.0)
Stats Elevation 81 ft / 25 m (AMSL)
Location 60.432651° -1.296108°
Runways 1
Magnetic Variation 2.141° W

METAR

EGPM 171150Z AUTO 22016KT 4100 RA BKN002/// OVC015/// 07/06 Q0999

Decode

TAF

Not found

Destination Runways

ID Width Length Bearing (true) Bearing (mag) Surface Threshold Offset Overrun Length
06 102 ft / 31 m 4,442 ft / 1,354 m 55.29° 57.43° Asphalt 374 ft / 114 m 0 ft / 0 m
24 102 ft / 31 m 4,442 ft / 1,354 m 235.31° 237.45° Asphalt 308 ft / 94 m 0 ft / 0 m